createdAt,value
2023-05-17T00:01:35.830Z,107.77
2023-05-17T00:04:04.595Z,108.07
2023-05-17T00:06:35.006Z,111.10
2023-05-17T00:09:03.289Z,113.00
2023-05-17T00:11:31.562Z,111.77
2023-05-17T00:13:59.697Z,112.77
2023-05-17T00:16:27.983Z,112.37
2023-05-17T00:18:57.512Z,115.30
2023-05-17T00:21:25.925Z,115.60
2023-05-17T00:23:53.989Z,115.83
2023-05-17T00:26:22.194Z,114.47
2023-05-17T00:28:50.362Z,115.03
2023-05-17T00:31:18.470Z,114.40
2023-05-17T00:33:47.615Z,114.70
2023-05-17T00:36:17.221Z,118.33
2023-05-17T00:38:45.324Z,119.40
2023-05-17T00:41:13.496Z,115.27
2023-05-17T00:43:41.666Z,116.50
2023-05-17T00:46:09.771Z,113.87
2023-05-17T00:48:39.085Z,112.70
2023-05-17T00:51:07.928Z,113.80
2023-05-17T00:53:37.680Z,113.70
2023-05-17T00:56:06.981Z,115.03
2023-05-17T00:58:35.234Z,115.93
2023-05-17T01:01:03.490Z,115.23
2023-05-17T01:03:31.760Z,115.97
2023-05-17T01:06:00.166Z,118.23
2023-05-17T01:08:28.275Z,117.40
2023-05-17T01:11:02.764Z,114.63
2023-05-17T01:13:43.182Z,117.23
2023-05-17T01:16:17.522Z,114.47
2023-05-17T01:18:49.805Z,115.67
2023-05-17T01:21:30.877Z,114.83
2023-05-17T01:24:14.097Z,115.57
2023-05-17T01:26:45.818Z,114.47
2023-05-17T01:29:17.227Z,115.37
2023-05-17T01:31:46.514Z,115.67
2023-05-17T01:34:14.664Z,117.77
2023-05-17T01:36:43.214Z,116.00
2023-05-17T01:39:11.788Z,114.70
2023-05-17T01:41:44.367Z,114.50
2023-05-17T01:44:19.934Z,114.57
2023-05-17T01:46:49.922Z,114.80
2023-05-17T01:49:24.985Z,117.30
2023-05-17T01:52:02.170Z,117.30
2023-05-17T01:54:38.071Z,119.20
2023-05-17T01:57:09.809Z,119.33
2023-05-17T01:59:39.917Z,119.83
2023-05-17T02:02:09.163Z,119.10
2023-05-17T02:04:37.833Z,122.60
2023-05-17T02:07:06.249Z,126.03
2023-05-17T02:09:34.306Z,121.20
2023-05-17T02:12:02.502Z,119.27
2023-05-17T02:14:32.084Z,118.17
2023-05-17T02:17:00.161Z,117.00
2023-05-17T02:19:28.305Z,118.83
2023-05-17T02:21:56.554Z,117.10
2023-05-17T02:24:24.697Z,114.50
2023-05-17T02:26:52.752Z,114.90
2023-05-17T02:29:20.835Z,115.03
2023-05-17T02:31:50.343Z,116.00
2023-05-17T02:34:18.399Z,116.37
2023-05-17T02:36:46.934Z,117.27
2023-05-17T02:39:15.193Z,117.00
2023-05-17T02:41:43.432Z,115.00
2023-05-17T02:44:11.539Z,116.53
2023-05-17T02:46:39.576Z,116.07
2023-05-17T02:49:09.025Z,114.47
2023-05-17T02:51:37.218Z,114.93
2023-05-17T02:54:05.650Z,118.50
2023-05-17T02:56:34.056Z,116.37
2023-05-17T02:59:02.309Z,116.30
2023-05-17T03:01:30.383Z,115.37
2023-05-17T03:03:58.673Z,117.00
2023-05-17T03:06:28.394Z,118.57
2023-05-17T03:08:56.553Z,118.23
2023-05-17T03:11:24.604Z,114.13
2023-05-17T03:13:52.737Z,114.13
2023-05-17T03:16:21.661Z,116.07
2023-05-17T03:18:49.891Z,116.50
2023-05-17T03:21:18.323Z,114.60
2023-05-17T03:23:47.761Z,116.17
2023-05-17T03:26:16.340Z,115.00
2023-05-17T03:28:44.410Z,115.27
2023-05-17T03:31:12.776Z,121.80
2023-05-17T03:33:41.001Z,123.90
2023-05-17T03:36:09.556Z,123.67
2023-05-17T03:38:37.800Z,124.77
2023-05-17T03:41:07.517Z,125.77
2023-05-17T03:43:35.608Z,127.40
2023-05-17T03:46:03.769Z,128.90
2023-05-17T03:48:33.815Z,133.13
2023-05-17T03:51:04.056Z,134.03
2023-05-17T03:53:32.247Z,135.53
2023-05-17T03:56:00.566Z,133.43
2023-05-17T03:58:29.996Z,136.00
2023-05-17T04:00:58.168Z,131.47
2023-05-17T04:03:26.526Z,124.97
2023-05-17T04:06:01.688Z,131.53
2023-05-17T04:08:29.893Z,125.80
2023-05-17T04:10:57.989Z,127.97
2023-05-17T04:13:26.087Z,127.83
2023-05-17T04:15:55.707Z,126.90
2023-05-17T04:18:23.997Z,128.17
2023-05-17T04:20:52.354Z,127.30
2023-05-17T04:23:20.512Z,124.13
2023-05-17T04:25:48.581Z,123.33
2023-05-17T04:28:16.724Z,123.20
2023-05-17T04:30:45.007Z,124.63
2023-05-17T04:33:14.715Z,125.20
2023-05-17T04:35:43.676Z,123.57
2023-05-17T04:38:12.362Z,124.37
2023-05-17T04:40:40.823Z,123.03
2023-05-17T04:43:09.054Z,123.13
2023-05-17T04:45:37.762Z,122.90
2023-05-17T04:48:06.368Z,123.37
2023-05-17T04:50:35.908Z,127.07
2023-05-17T04:53:04.083Z,125.07
2023-05-17T04:55:32.201Z,122.00
2023-05-17T04:58:00.625Z,122.67
2023-05-17T05:00:28.938Z,123.10
2023-05-17T05:02:57.068Z,122.77
2023-05-17T05:05:25.693Z,125.60
2023-05-17T05:07:55.236Z,130.20
2023-05-17T05:10:23.753Z,126.00
2023-05-17T05:12:51.928Z,126.53
2023-05-17T05:15:20.200Z,127.63
2023-05-17T05:17:48.849Z,127.47
2023-05-17T05:20:17.414Z,127.80
2023-05-17T05:22:45.618Z,127.03
2023-05-17T05:25:15.230Z,127.27
2023-05-17T05:27:43.314Z,129.47
2023-05-17T05:30:12.785Z,125.80
2023-05-17T05:32:40.935Z,127.70
2023-05-17T05:35:10.084Z,125.67
2023-05-17T05:37:38.163Z,125.17
2023-05-17T05:40:09.161Z,121.50
2023-05-17T05:42:38.624Z,123.40
2023-05-17T05:45:08.392Z,123.67
2023-05-17T05:47:36.633Z,123.40
2023-05-17T05:50:05.585Z,121.87
2023-05-17T05:52:33.909Z,120.27
2023-05-17T05:55:02.043Z,116.83
2023-05-17T05:57:30.227Z,116.40
2023-05-17T05:59:59.769Z,117.03
2023-05-17T06:02:27.877Z,117.87
2023-05-17T06:04:56.409Z,117.97
2023-05-17T06:07:24.586Z,115.77
2023-05-17T06:09:52.675Z,107.63
2023-05-17T06:12:21.040Z,95.77
2023-05-17T06:14:49.180Z,87.23
2023-05-17T06:17:18.479Z,78.30
2023-05-17T06:19:46.671Z,58.50
2023-05-17T06:22:14.881Z,44.30
2023-05-17T06:24:42.974Z,32.33
2023-05-17T06:27:11.189Z,25.53
2023-05-17T06:29:40.303Z,22.80
2023-05-17T06:32:08.791Z,21.40
2023-05-17T06:34:40.055Z,20.97
2023-05-17T06:37:08.612Z,19.57
2023-05-17T06:39:36.799Z,20.73
2023-05-17T06:42:05.399Z,18.80
2023-05-17T06:44:33.561Z,19.57
2023-05-17T06:47:02.081Z,18.27
2023-05-17T06:49:30.164Z,18.23
2023-05-17T06:52:03.515Z,18.70
2023-05-17T06:54:31.725Z,18.77
2023-05-17T06:57:01.565Z,18.13
2023-05-17T06:59:30.121Z,18.07
2023-05-17T07:02:00.148Z,17.80
2023-05-17T07:04:28.690Z,17.90
2023-05-17T07:06:57.073Z,19.60
2023-05-17T07:09:26.567Z,18.43
2023-05-17T07:11:55.939Z,18.10
2023-05-17T07:14:24.102Z,18.10
2023-05-17T07:16:52.246Z,17.57
2023-05-17T07:19:20.828Z,18.47
2023-05-17T07:21:49.003Z,18.80
2023-05-17T07:24:17.221Z,19.03
2023-05-17T07:26:46.795Z,18.77
2023-05-17T07:29:15.190Z,18.30
2023-05-17T07:31:43.294Z,18.43
2023-05-17T07:34:13.478Z,18.80
2023-05-17T07:36:41.747Z,18.43
2023-05-17T07:39:10.247Z,18.23
2023-05-17T07:41:38.513Z,19.63
2023-05-17T07:44:08.169Z,19.83
2023-05-17T07:46:36.527Z,18.97
2023-05-17T07:49:04.855Z,19.40
2023-05-17T07:51:33.225Z,19.50
2023-05-17T07:54:05.554Z,20.43
2023-05-17T07:56:33.788Z,18.43
2023-05-17T07:59:01.888Z,18.07
2023-05-17T08:01:31.297Z,18.30
2023-05-17T08:03:59.500Z,18.17
2023-05-17T08:06:27.785Z,18.70
2023-05-17T08:08:55.932Z,18.53
2023-05-17T08:11:24.074Z,18.90
2023-05-17T08:13:52.342Z,18.40
2023-05-17T08:16:20.755Z,18.70
2023-05-17T08:18:50.408Z,18.67
2023-05-17T08:21:18.915Z,19.00
2023-05-17T08:23:47.067Z,19.07
2023-05-17T08:26:15.306Z,20.00
2023-05-17T08:28:43.443Z,18.63
2023-05-17T08:31:12.542Z,19.20
2023-05-17T08:33:40.793Z,20.43
2023-05-17T08:36:10.527Z,18.80
2023-05-17T08:38:38.610Z,19.13
2023-05-17T08:41:06.849Z,19.50
2023-05-17T08:43:36.061Z,19.43
2023-05-17T08:46:04.477Z,18.83
2023-05-17T08:48:33.066Z,18.77
2023-05-17T08:51:01.510Z,18.67
2023-05-17T08:53:31.156Z,18.83
2023-05-17T08:56:02.369Z,17.67
2023-05-17T08:58:44.740Z,17.53
2023-05-17T09:01:25.910Z,17.10
2023-05-17T09:03:55.016Z,17.40
2023-05-17T09:06:24.870Z,17.57
2023-05-17T09:08:55.763Z,17.83
2023-05-17T09:11:28.274Z,18.50
2023-05-17T09:14:00.498Z,18.73
2023-05-17T09:16:30.009Z,17.73
2023-05-17T09:18:59.016Z,17.70
2023-05-17T09:21:28.607Z,17.67
2023-05-17T09:24:06.448Z,17.10
2023-05-17T09:26:40.755Z,17.13
2023-05-17T09:29:12.816Z,18.00
2023-05-17T09:31:41.536Z,18.23
2023-05-17T09:34:10.127Z,17.97
2023-05-17T09:36:41.386Z,18.57
2023-05-17T09:39:13.424Z,17.40
2023-05-17T09:41:45.362Z,17.37
2023-05-17T09:44:15.233Z,17.43
2023-05-17T09:46:47.292Z,17.70
2023-05-17T09:49:16.518Z,17.57
2023-05-17T09:51:46.067Z,17.90
2023-05-17T09:54:17.658Z,17.77
2023-05-17T09:56:45.860Z,17.70
2023-05-17T09:59:15.331Z,18.10
2023-05-17T10:01:46.052Z,17.90
2023-05-17T10:04:15.079Z,17.60
2023-05-17T10:06:49.513Z,18.10
2023-05-17T10:09:24.075Z,18.20
2023-05-17T10:11:54.030Z,18.00
2023-05-17T10:14:27.880Z,17.50
2023-05-17T10:16:57.677Z,17.20
2023-05-17T10:19:26.961Z,17.37
2023-05-17T10:22:00.246Z,17.40
2023-05-17T10:24:38.184Z,17.10
2023-05-17T10:27:08.231Z,17.37
2023-05-17T10:29:39.429Z,17.00
2023-05-17T10:32:09.344Z,16.77
2023-05-17T10:34:39.637Z,17.20
2023-05-17T10:37:08.028Z,17.67
2023-05-17T10:39:38.894Z,16.60
2023-05-17T10:44:40.816Z,16.90
2023-05-17T10:47:09.747Z,17.20
2023-05-17T10:49:41.430Z,17.00
2023-05-17T10:52:14.351Z,16.50
2023-05-17T10:54:46.269Z,16.30
2023-05-17T10:57:22.633Z,16.60
2023-05-17T11:00:04.256Z,16.53
2023-05-17T11:02:34.132Z,16.67
2023-05-17T11:05:03.151Z,16.43
2023-05-17T11:07:33.910Z,16.47
2023-05-17T11:10:12.610Z,17.10
2023-05-17T11:12:43.021Z,16.60
2023-05-17T11:15:12.705Z,16.40
2023-05-17T11:17:51.970Z,16.30
2023-05-17T11:20:35.088Z,16.40
2023-05-17T11:23:05.339Z,16.57
2023-05-17T11:25:36.936Z,16.50
2023-05-17T11:28:10.594Z,17.40
2023-05-17T11:30:43.698Z,17.03
2023-05-17T11:33:24.992Z,17.10
2023-05-17T11:36:06.854Z,16.70
2023-05-17T11:38:35.286Z,16.87
2023-05-17T11:43:53.432Z,16.50
2023-05-17T11:46:24.284Z,16.70
2023-05-17T11:48:53.737Z,16.50
2023-05-17T11:51:24.988Z,17.20
2023-05-17T11:53:56.272Z,16.60
2023-05-17T11:56:42.404Z,16.33
2023-05-17T11:59:13.576Z,16.17
2023-05-17T12:01:50.708Z,16.37
2023-05-17T12:04:26.649Z,16.40
2023-05-17T12:06:59.134Z,16.23
2023-05-17T12:09:28.847Z,16.20
2023-05-17T12:12:03.386Z,17.20
2023-05-17T12:14:33.392Z,16.67
2023-05-17T12:17:07.946Z,17.10
2023-05-17T12:19:37.877Z,16.90
2023-05-17T12:22:13.106Z,16.77
2023-05-17T12:24:44.369Z,17.40
2023-05-17T12:27:15.727Z,16.90
2023-05-17T12:29:45.436Z,16.87
2023-05-17T12:32:14.832Z,17.50
2023-05-17T12:34:44.791Z,16.93
2023-05-17T12:37:14.678Z,16.73
2023-05-17T12:39:44.803Z,17.50
2023-05-17T12:42:16.058Z,16.97
2023-05-17T12:44:45.996Z,17.90
2023-05-17T12:47:15.736Z,17.80
2023-05-17T12:49:56.505Z,17.87
2023-05-17T12:52:26.209Z,17.43
2023-05-17T12:55:03.057Z,17.73
2023-05-17T12:57:34.981Z,18.03
2023-05-17T13:00:10.246Z,17.87
2023-05-17T13:02:44.366Z,18.40
2023-05-17T13:05:18.854Z,17.13
2023-05-17T13:07:49.054Z,17.60
2023-05-17T13:10:26.063Z,17.50
2023-05-17T13:13:01.864Z,17.20
2023-05-17T13:15:30.813Z,17.10
2023-05-17T13:18:00.123Z,17.20
2023-05-17T13:20:29.280Z,16.90
2023-05-17T13:22:57.823Z,17.20
2023-05-17T13:25:26.143Z,16.83
2023-05-17T13:27:55.457Z,16.60
2023-05-17T13:30:25.224Z,16.83
2023-05-17T13:32:54.528Z,17.60
2023-05-17T13:35:23.003Z,16.90
2023-05-17T13:37:51.368Z,17.40
2023-05-17T13:40:19.641Z,16.90
2023-05-17T13:42:48.341Z,17.23
2023-05-17T13:45:16.673Z,17.43
2023-05-17T13:47:46.495Z,17.67
2023-05-17T13:50:17.304Z,18.33
2023-05-17T13:52:45.665Z,17.47
2023-05-17T13:55:13.907Z,17.60
2023-05-17T13:57:42.298Z,17.60
2023-05-17T14:00:11.656Z,17.30
2023-05-17T14:02:40.052Z,17.40
2023-05-17T14:05:10.270Z,17.30
2023-05-17T14:07:41.416Z,17.50
2023-05-17T14:10:12.234Z,17.30
2023-05-17T14:12:41.118Z,17.80
2023-05-17T14:15:11.019Z,17.47
2023-05-17T14:17:39.058Z,17.17
2023-05-17T14:20:10.544Z,17.90
2023-05-17T14:22:38.822Z,19.23
2023-05-17T14:25:08.133Z,16.93
2023-05-17T14:27:36.508Z,17.43
2023-05-17T14:30:05.068Z,17.37
2023-05-17T14:32:35.398Z,17.43
2023-05-17T14:35:03.557Z,17.33
2023-05-17T14:37:33.070Z,17.03
2023-05-17T14:42:32.366Z,17.87
2023-05-17T14:45:00.639Z,17.13
2023-05-17T14:47:28.804Z,16.67
2023-05-17T14:49:57.020Z,17.33
2023-05-17T14:52:25.904Z,17.30
2023-05-17T14:54:55.539Z,17.10
2023-05-17T14:57:24.051Z,17.40
2023-05-17T14:59:52.370Z,17.60
2023-05-17T15:02:20.806Z,17.50
2023-05-17T15:04:48.996Z,17.70
2023-05-17T15:07:17.965Z,17.90
2023-05-17T15:09:46.151Z,16.93
2023-05-17T15:12:15.919Z,17.20
2023-05-17T15:14:45.270Z,17.83
2023-05-17T15:17:13.749Z,17.00
2023-05-17T15:19:42.145Z,16.93
2023-05-17T15:22:10.590Z,17.07
2023-05-17T15:24:39.606Z,17.03
2023-05-17T15:27:08.117Z,17.20
2023-05-17T15:29:38.887Z,17.63
2023-05-17T15:32:07.448Z,17.07
2023-05-17T15:34:36.572Z,17.20
2023-05-17T15:37:04.901Z,17.40
2023-05-17T15:39:32.985Z,17.20
2023-05-17T15:42:01.058Z,17.70
2023-05-17T15:44:29.132Z,17.27
2023-05-17T15:47:00.820Z,17.70
2023-05-17T15:49:30.721Z,17.90
2023-05-17T15:51:58.952Z,17.50
2023-05-17T15:54:27.068Z,17.50
2023-05-17T15:56:55.242Z,17.53
2023-05-17T15:59:23.375Z,18.87
2023-05-17T16:01:51.476Z,17.60
2023-05-17T16:04:21.362Z,17.30
2023-05-17T16:06:49.568Z,17.40
2023-05-17T16:09:17.687Z,17.40
2023-05-17T16:11:45.976Z,17.60
2023-05-17T16:14:14.080Z,17.80
2023-05-17T16:16:45.080Z,17.00
2023-05-17T16:19:13.657Z,17.63
2023-05-17T16:21:43.356Z,16.90
2023-05-17T16:24:11.819Z,16.90
2023-05-17T16:26:40.137Z,17.67
2023-05-17T16:29:08.385Z,16.43
2023-05-17T16:31:36.594Z,16.43
2023-05-17T16:34:04.749Z,17.10
2023-05-17T16:36:33.915Z,16.30
2023-05-17T16:39:06.072Z,16.40
2023-05-17T16:41:35.846Z,16.37
2023-05-17T16:44:03.943Z,16.87
2023-05-17T16:46:32.944Z,16.37
2023-05-17T16:49:01.499Z,16.60
2023-05-17T16:51:31.845Z,16.30
2023-05-17T16:53:59.930Z,16.70
2023-05-17T16:56:29.363Z,16.57
2023-05-17T16:58:57.609Z,16.70
2023-05-17T17:01:26.294Z,18.67
2023-05-17T17:03:56.661Z,16.90
2023-05-17T17:06:24.981Z,17.57
2023-05-17T17:08:53.052Z,16.77
2023-05-17T17:11:22.671Z,16.53
2023-05-17T17:13:52.523Z,16.63
2023-05-17T17:16:21.373Z,17.40
2023-05-17T17:18:49.761Z,16.50
2023-05-17T17:21:18.064Z,16.53
2023-05-17T17:23:46.225Z,17.10
2023-05-17T17:26:14.261Z,16.60
2023-05-17T17:28:42.542Z,16.50
2023-05-17T17:31:12.053Z,16.50
2023-05-17T17:33:40.306Z,16.20
2023-05-17T17:36:11.285Z,16.57
2023-05-17T17:38:39.338Z,16.00
2023-05-17T17:41:07.481Z,16.50
2023-05-17T17:43:35.800Z,16.67
2023-05-17T17:46:06.746Z,16.73
2023-05-17T17:48:36.248Z,17.43
2023-05-17T17:51:04.502Z,16.67
2023-05-17T17:53:32.734Z,17.23
2023-05-17T17:56:00.873Z,16.50
2023-05-17T17:58:29.974Z,17.00
2023-05-17T18:00:58.290Z,16.93
2023-05-17T18:03:26.499Z,17.00
2023-05-17T18:05:55.957Z,17.20
2023-05-17T18:08:24.084Z,16.93
2023-05-17T18:10:52.167Z,17.23
2023-05-17T18:13:20.336Z,17.20
2023-05-17T18:15:48.545Z,16.90
2023-05-17T18:18:16.656Z,16.83
2023-05-17T18:20:44.941Z,17.17
2023-05-17T18:23:14.439Z,17.10
2023-05-17T18:25:42.520Z,17.60
2023-05-17T18:28:10.729Z,17.50
2023-05-17T18:30:39.748Z,18.30
2023-05-17T18:33:07.997Z,17.97
2023-05-17T18:35:36.096Z,17.50
2023-05-17T18:38:04.170Z,17.50
2023-05-17T18:40:33.842Z,17.50
2023-05-17T18:43:02.016Z,18.30
2023-05-17T18:45:31.823Z,17.70
2023-05-17T18:48:00.187Z,17.80
2023-05-17T18:50:28.504Z,17.30
2023-05-17T18:52:57.340Z,17.30
2023-05-17T18:55:25.487Z,17.17
2023-05-17T18:57:54.783Z,17.00
2023-05-17T19:00:22.939Z,17.13
2023-05-17T19:02:51.104Z,17.17
2023-05-17T19:05:19.372Z,17.83
2023-05-17T19:07:47.463Z,17.00
2023-05-17T19:10:15.678Z,17.07
2023-05-17T19:12:45.666Z,17.00
2023-05-17T19:15:15.383Z,16.83
2023-05-17T19:17:43.529Z,17.50
2023-05-17T19:20:12.212Z,17.73
2023-05-17T19:22:40.312Z,18.07
2023-05-17T19:25:09.690Z,17.90
2023-05-17T19:27:37.913Z,17.80
2023-05-17T19:30:07.331Z,17.53
2023-05-17T19:32:37.340Z,18.03
2023-05-17T19:35:06.144Z,17.90
2023-05-17T19:37:34.299Z,17.87
2023-05-17T19:40:02.608Z,18.27
2023-05-17T19:42:30.966Z,18.10
2023-05-17T19:44:59.190Z,18.67
2023-05-17T19:47:27.399Z,17.17
2023-05-17T19:49:56.955Z,17.17
2023-05-17T19:52:25.198Z,18.70
2023-05-17T19:54:53.406Z,18.40
2023-05-17T19:57:21.561Z,17.70
2023-05-17T19:59:52.141Z,17.80
2023-05-17T20:02:20.636Z,18.17
2023-05-17T20:04:48.874Z,18.27
2023-05-17T20:07:18.840Z,18.27
2023-05-17T20:09:47.095Z,19.20
2023-05-17T20:12:15.686Z,18.60
2023-05-17T20:14:44.213Z,18.70
2023-05-17T20:17:12.935Z,18.00
2023-05-17T20:19:41.048Z,18.50
2023-05-17T20:22:09.327Z,18.50
2023-05-17T20:24:39.027Z,18.50
2023-05-17T20:27:07.455Z,18.60
2023-05-17T20:29:35.816Z,18.03
2023-05-17T20:32:03.986Z,20.03
2023-05-17T20:34:32.325Z,18.00
2023-05-17T20:37:01.100Z,18.33
2023-05-17T20:39:30.894Z,19.00
2023-05-17T20:42:01.253Z,19.20
2023-05-17T20:44:29.485Z,18.40
2023-05-17T20:46:57.724Z,18.23
2023-05-17T20:49:25.946Z,18.30
2023-05-17T20:51:54.125Z,18.60
2023-05-17T20:54:24.250Z,18.47
2023-05-17T20:56:52.362Z,18.40
2023-05-17T20:59:23.411Z,18.60
2023-05-17T21:01:51.824Z,19.20
2023-05-17T21:04:20.080Z,18.30
2023-05-17T21:06:48.240Z,18.87
2023-05-17T21:09:18.905Z,18.90
2023-05-17T21:11:47.088Z,18.63
2023-05-17T21:14:15.337Z,19.03
2023-05-17T21:16:44.970Z,19.13
2023-05-17T21:19:14.499Z,19.40
2023-05-17T21:21:42.816Z,20.43
2023-05-17T21:24:11.026Z,20.43
2023-05-17T21:26:40.822Z,19.50
2023-05-17T21:29:09.497Z,18.60
2023-05-17T21:31:38.034Z,19.23
2023-05-17T21:34:07.644Z,19.57
2023-05-17T21:36:35.810Z,19.13
2023-05-17T21:39:04.068Z,18.73
2023-05-17T21:41:32.231Z,19.20
2023-05-17T21:44:00.437Z,19.60
2023-05-17T21:46:28.696Z,19.30
2023-05-17T21:48:56.855Z,19.10
2023-05-17T21:51:26.591Z,18.67
2023-05-17T21:53:54.707Z,19.87
2023-05-17T21:56:22.912Z,19.23
2023-05-17T21:58:53.023Z,19.57
2023-05-17T22:01:24.222Z,18.83
2023-05-17T22:03:53.595Z,18.80
2023-05-17T22:06:21.897Z,18.57
2023-05-17T22:08:51.683Z,18.57
2023-05-17T22:11:22.760Z,18.30
2023-05-17T22:13:51.853Z,18.80
2023-05-17T22:16:22.407Z,18.47
2023-05-17T22:18:52.401Z,18.40
2023-05-17T22:21:21.472Z,18.60
2023-05-17T22:23:51.076Z,18.70
2023-05-17T22:26:19.802Z,19.30
2023-05-17T22:28:47.920Z,19.03
2023-05-17T22:31:18.536Z,18.67
2023-05-17T22:33:46.942Z,19.00
2023-05-17T22:36:17.167Z,19.00
2023-05-17T22:38:45.576Z,18.70
2023-05-17T22:41:15.088Z,19.03
2023-05-17T22:43:43.250Z,18.70
2023-05-17T22:46:11.405Z,18.40
2023-05-17T22:48:40.553Z,18.53
2023-05-17T22:51:08.837Z,18.30
2023-05-17T22:53:37.068Z,18.77
2023-05-17T22:56:05.353Z,18.70
2023-05-17T22:58:34.843Z,18.70
2023-05-17T23:01:03.129Z,18.37
2023-05-17T23:03:31.241Z,18.30
2023-05-17T23:06:03.196Z,18.90
2023-05-17T23:08:31.712Z,18.50
2023-05-17T23:11:00.165Z,18.37
2023-05-17T23:13:28.678Z,18.73
2023-05-17T23:15:58.214Z,21.00
2023-05-17T23:18:27.552Z,19.00
2023-05-17T23:20:55.767Z,18.30
2023-05-17T23:23:24.066Z,19.07
2023-05-17T23:25:56.426Z,18.33
2023-05-17T23:28:25.107Z,18.17
2023-05-17T23:30:54.528Z,18.40
2023-05-17T23:33:24.041Z,18.77
2023-05-17T23:35:53.526Z,18.70
2023-05-17T23:38:22.268Z,19.07
2023-05-17T23:40:50.432Z,18.53
2023-05-17T23:43:18.497Z,18.80
2023-05-17T23:45:47.841Z,18.63
2023-05-17T23:48:20.810Z,18.70
2023-05-17T23:50:50.580Z,18.50
2023-05-17T23:53:19.777Z,18.60
2023-05-17T23:55:48.022Z,18.90
2023-05-17T23:58:16.144Z,18.17
